createdAt,value
2022-09-03T00:00:54.781Z,2.83
2022-09-03T00:03:45.677Z,2.67
2022-09-03T00:06:27.008Z,2.80
2022-09-03T00:09:01.653Z,2.70
2022-09-03T00:11:40.651Z,2.92
2022-09-03T00:14:21.470Z,2.70
2022-09-03T00:16:57.761Z,2.85
2022-09-03T00:19:33.635Z,2.75
2022-09-03T00:22:07.208Z,3.00
2022-09-03T00:24:38.247Z,2.67
2022-09-03T00:27:13.099Z,2.80
2022-09-03T00:29:52.493Z,2.85
2022-09-03T00:32:34.366Z,2.80
2022-09-03T00:35:06.582Z,2.67
2022-09-03T00:37:38.061Z,2.67
2022-09-03T00:40:11.141Z,2.75
2022-09-03T00:42:38.478Z,2.63
2022-09-03T00:45:31.171Z,2.80
2022-09-03T00:48:27.981Z,2.70
2022-09-03T00:51:00.683Z,2.88
2022-09-03T00:53:59.386Z,2.88
2022-09-03T00:56:41.059Z,2.80
2022-09-03T00:59:34.654Z,2.83
2022-09-03T01:02:29.049Z,2.90
2022-09-03T01:05:18.339Z,2.80
2022-09-03T01:08:02.484Z,3.03
2022-09-03T01:11:05.061Z,2.90
2022-09-03T01:14:06.440Z,2.90
2022-09-03T01:16:42.016Z,2.92
2022-09-03T01:19:31.780Z,3.22
2022-09-03T01:22:36.104Z,3.03
2022-09-03T01:25:11.404Z,2.70
2022-09-03T01:27:57.080Z,3.38
2022-09-03T01:30:25.088Z,3.15
2022-09-03T01:33:17.256Z,3.42
2022-09-03T01:35:48.170Z,3.38
2022-09-03T01:38:18.041Z,3.20
2022-09-03T01:40:53.882Z,3.50
2022-09-03T01:44:04.211Z,3.22
2022-09-03T01:46:40.152Z,3.30
2022-09-03T01:49:25.732Z,3.40
2022-09-03T01:52:14.188Z,3.28
2022-09-03T01:54:50.513Z,3.13
2022-09-03T01:57:56.267Z,3.05
2022-09-03T02:00:25.090Z,3.17
2022-09-03T02:02:52.961Z,3.10
2022-09-03T02:05:39.261Z,3.00
2022-09-03T02:08:08.263Z,2.85
2022-09-03T02:10:43.211Z,3.35
2022-09-03T02:13:11.838Z,2.72
2022-09-03T02:15:42.416Z,2.50
2022-09-03T02:18:22.651Z,2.70
2022-09-03T02:20:51.725Z,2.50
2022-09-03T02:23:18.555Z,2.42
2022-09-03T02:26:02.993Z,2.60
2022-09-03T02:28:32.194Z,2.67
2022-09-03T02:30:59.455Z,2.70
2022-09-03T02:33:26.869Z,2.65
2022-09-03T02:35:55.341Z,3.00
2022-09-03T02:38:26.159Z,2.50
2022-09-03T02:40:56.328Z,2.90
2022-09-03T02:43:44.942Z,2.83
2022-09-03T02:46:21.885Z,2.63
2022-09-03T02:48:49.163Z,2.53
2022-09-03T02:51:16.196Z,2.72
2022-09-03T02:53:43.578Z,2.70
2022-09-03T02:56:11.370Z,2.60
2022-09-03T02:58:38.232Z,2.50
2022-09-03T03:01:05.759Z,2.40
2022-09-03T03:03:33.016Z,2.42
2022-09-03T03:06:03.047Z,2.40
2022-09-03T03:08:30.364Z,2.38
2022-09-03T03:11:00.963Z,2.60
2022-09-03T03:13:28.585Z,2.60
2022-09-03T03:16:03.611Z,2.63
2022-09-03T03:18:30.574Z,2.53
2022-09-03T03:20:58.059Z,2.70
2022-09-03T03:23:24.762Z,2.97
2022-09-03T03:25:51.469Z,2.72
2022-09-03T03:28:20.592Z,2.70
2022-09-03T03:30:48.738Z,2.22
2022-09-03T03:33:15.689Z,2.50
2022-09-03T03:35:42.846Z,2.78
2022-09-03T03:38:09.867Z,2.60
2022-09-03T03:40:38.761Z,3.10
2022-09-03T03:43:05.775Z,2.83
2022-09-03T03:45:32.641Z,2.90
2022-09-03T03:47:59.557Z,2.70
2022-09-03T03:50:26.870Z,2.80
2022-09-03T03:52:53.604Z,2.60
2022-09-03T03:55:20.609Z,2.60
2022-09-03T03:57:47.332Z,2.60
2022-09-03T04:00:15.108Z,2.60
2022-09-03T04:02:41.855Z,2.60
2022-09-03T04:05:08.892Z,2.80
2022-09-03T04:07:36.176Z,2.55
2022-09-03T04:10:03.291Z,2.75
2022-09-03T04:12:29.977Z,2.70
2022-09-03T04:14:56.693Z,2.50
2022-09-03T04:17:25.373Z,2.60
2022-09-03T04:19:52.359Z,2.90
2022-09-03T04:22:20.658Z,2.70
2022-09-03T04:24:47.428Z,2.67
2022-09-03T04:27:14.120Z,2.50
2022-09-03T04:29:40.889Z,2.67
2022-09-03T04:32:26.036Z,2.80
2022-09-03T04:34:52.733Z,2.90
2022-09-03T04:37:20.300Z,2.83
2022-09-03T04:39:47.146Z,2.70
2022-09-03T04:42:13.958Z,3.00
2022-09-03T04:44:41.199Z,2.80
2022-09-03T04:47:08.066Z,2.95
2022-09-03T04:49:34.829Z,3.38
2022-09-03T04:52:02.600Z,2.80
2022-09-03T04:54:29.412Z,3.00
2022-09-03T04:56:56.636Z,2.80
2022-09-03T04:59:23.300Z,3.00
2022-09-03T05:01:52.593Z,2.70
2022-09-03T05:04:19.749Z,2.78
2022-09-03T05:06:46.567Z,2.83
2022-09-03T05:09:13.305Z,2.97
2022-09-03T05:11:40.020Z,2.70
2022-09-03T05:14:06.824Z,3.00
2022-09-03T05:16:33.589Z,3.00
2022-09-03T05:19:01.042Z,2.67
2022-09-03T05:21:28.794Z,2.72
2022-09-03T05:23:55.761Z,2.70
2022-09-03T05:26:28.291Z,2.75
2022-09-03T05:28:57.514Z,2.70
2022-09-03T05:31:26.352Z,2.63
2022-09-03T05:33:57.722Z,2.65
2022-09-03T05:36:26.445Z,2.80
2022-09-03T05:38:54.266Z,2.90
2022-09-03T05:41:22.006Z,2.40
2022-09-03T05:43:55.286Z,2.65
2022-09-03T05:46:31.550Z,2.45
2022-09-03T05:49:04.879Z,2.60
2022-09-03T05:51:32.668Z,2.60
2022-09-03T05:53:59.711Z,2.50
2022-09-03T05:56:28.461Z,2.60
2022-09-03T05:58:58.615Z,2.80
2022-09-03T06:01:31.451Z,2.58
2022-09-03T06:04:10.285Z,2.47
2022-09-03T06:06:39.151Z,2.55
2022-09-03T06:09:08.172Z,2.55
2022-09-03T06:11:36.190Z,2.60
2022-09-03T06:14:06.196Z,2.50
2022-09-03T06:16:35.957Z,2.55
2022-09-03T06:19:03.858Z,2.75
2022-09-03T06:21:30.524Z,2.50
2022-09-03T06:23:59.950Z,2.42
2022-09-03T06:26:30.951Z,2.42
2022-09-03T06:28:58.177Z,2.50
2022-09-03T06:31:25.309Z,2.60
2022-09-03T06:33:53.678Z,2.60
2022-09-03T06:36:21.317Z,2.35
2022-09-03T06:38:48.105Z,2.60
2022-09-03T06:41:25.246Z,2.47
2022-09-03T06:43:54.979Z,2.30
2022-09-03T06:46:24.004Z,2.20
2022-09-03T06:48:51.230Z,2.30
2022-09-03T06:51:20.013Z,2.20
2022-09-03T06:53:52.837Z,2.35
2022-09-03T06:56:27.173Z,2.28
2022-09-03T06:58:58.578Z,2.22
2022-09-03T07:01:33.675Z,2.05
2022-09-03T07:04:04.444Z,1.98
2022-09-03T07:06:33.922Z,2.00
2022-09-03T07:09:00.810Z,2.00
2022-09-03T07:11:30.833Z,2.13
2022-09-03T07:13:58.287Z,2.00
2022-09-03T07:16:29.112Z,2.17
2022-09-03T07:18:56.657Z,2.08
2022-09-03T07:21:26.059Z,2.10
2022-09-03T07:23:54.138Z,2.00
2022-09-03T07:26:27.137Z,2.10
2022-09-03T07:28:54.966Z,2.30
2022-09-03T07:31:28.485Z,2.10
2022-09-03T07:33:56.236Z,2.00
2022-09-03T07:36:24.768Z,2.00
2022-09-03T07:38:54.179Z,2.15
2022-09-03T07:41:28.493Z,2.05
2022-09-03T07:43:57.072Z,2.03
2022-09-03T07:46:27.179Z,2.17
2022-09-03T07:48:56.402Z,2.38
2022-09-03T07:51:26.651Z,2.20
2022-09-03T07:53:58.751Z,2.13
2022-09-03T07:56:27.026Z,2.00
2022-09-03T07:58:56.401Z,2.40
2022-09-03T08:01:24.753Z,2.22
2022-09-03T08:03:54.929Z,2.20
2022-09-03T08:06:25.476Z,2.22
2022-09-03T08:09:04.973Z,2.25
2022-09-03T08:11:34.999Z,2.33
2022-09-03T08:14:06.473Z,2.20
2022-09-03T08:16:42.407Z,2.33
2022-09-03T08:19:09.478Z,2.40
2022-09-03T08:21:36.294Z,2.00
2022-09-03T08:24:03.535Z,2.05
2022-09-03T08:26:32.740Z,2.30
2022-09-03T08:29:00.562Z,2.00
2022-09-03T08:31:29.285Z,2.20
2022-09-03T08:33:58.112Z,2.13
2022-09-03T08:36:32.227Z,2.30
2022-09-03T08:39:04.161Z,2.10
2022-09-03T08:41:52.541Z,2.10
2022-09-03T08:44:28.047Z,2.03
2022-09-03T08:47:21.868Z,1.90
2022-09-03T08:49:51.504Z,1.98
2022-09-03T08:52:21.001Z,2.20
2022-09-03T08:54:51.150Z,2.17
2022-09-03T08:57:20.756Z,2.40
2022-09-03T08:59:51.652Z,1.90
2022-09-03T09:02:36.302Z,2.00
2022-09-03T09:05:16.200Z,2.38
2022-09-03T09:08:16.565Z,1.90
2022-09-03T09:11:02.636Z,2.15
2022-09-03T09:13:44.914Z,1.90
2022-09-03T09:16:37.826Z,2.30
2022-09-03T09:19:25.673Z,2.30
2022-09-03T09:22:27.080Z,2.10
2022-09-03T09:24:57.602Z,2.22
2022-09-03T09:27:24.447Z,2.30
2022-09-03T09:29:53.159Z,2.25
2022-09-03T09:32:21.705Z,2.10
2022-09-03T09:34:52.213Z,2.00
2022-09-03T09:37:19.876Z,2.17
2022-09-03T09:39:58.480Z,2.22
2022-09-03T09:42:26.059Z,26.98
2022-09-03T09:44:52.818Z,3.75
2022-09-03T09:47:34.743Z,2.35
2022-09-03T09:50:03.139Z,2.40
2022-09-03T09:52:31.686Z,2.60
2022-09-03T09:55:17.556Z,2.20
2022-09-03T09:57:44.652Z,2.20
2022-09-03T10:00:15.807Z,2.20
2022-09-03T10:02:51.033Z,2.42
2022-09-03T10:05:24.339Z,8.23
2022-09-03T10:08:06.597Z,2.90
2022-09-03T10:10:44.916Z,2.30
2022-09-03T10:13:18.062Z,2.40
2022-09-03T10:16:03.173Z,2.60
2022-09-03T10:18:44.509Z,2.63
2022-09-03T10:21:39.639Z,2.70
2022-09-03T10:24:26.456Z,2.13
2022-09-03T10:26:55.636Z,2.15
2022-09-03T10:29:23.634Z,2.20
2022-09-03T10:32:16.665Z,2.30
2022-09-03T10:34:59.440Z,2.17
2022-09-03T10:37:32.986Z,2.33
2022-09-03T10:40:24.919Z,2.20
2022-09-03T10:43:23.924Z,2.00
2022-09-03T10:46:06.112Z,2.00
2022-09-03T10:49:10.592Z,6.18
2022-09-03T10:51:47.473Z,2.20
2022-09-03T10:54:31.181Z,2.00
2022-09-03T10:57:14.952Z,2.00
2022-09-03T10:59:56.940Z,1.90
2022-09-03T11:02:32.964Z,2.20
2022-09-03T11:05:08.347Z,2.17
2022-09-03T11:07:43.777Z,2.53
2022-09-03T11:10:31.082Z,2.45
2022-09-03T11:13:06.208Z,2.30
2022-09-03T11:15:45.571Z,2.08
2022-09-03T11:18:43.374Z,1.83
2022-09-03T11:21:14.833Z,2.10
2022-09-03T11:23:47.891Z,1.92
2022-09-03T11:26:19.755Z,2.17
2022-09-03T11:29:02.258Z,2.22
2022-09-03T11:31:43.648Z,2.70
2022-09-03T11:34:17.808Z,2.60
2022-09-03T11:36:50.809Z,2.20
2022-09-03T11:39:36.703Z,2.10
2022-09-03T11:42:25.135Z,2.30
2022-09-03T11:44:52.220Z,2.10
2022-09-03T11:47:24.241Z,2.13
2022-09-03T11:50:07.348Z,2.10
2022-09-03T11:52:40.297Z,2.47
2022-09-03T11:55:08.290Z,2.30
2022-09-03T11:57:43.667Z,2.30
2022-09-03T12:00:15.067Z,2.30
2022-09-03T12:02:58.890Z,2.40
2022-09-03T12:05:42.007Z,2.07
2022-09-03T12:08:36.029Z,2.38
2022-09-03T12:11:30.759Z,2.10
2022-09-03T12:14:18.799Z,2.20
2022-09-03T12:17:05.452Z,2.35
2022-09-03T12:19:39.869Z,1.90
2022-09-03T12:22:06.763Z,2.22
2022-09-03T12:24:38.423Z,1.80
2022-09-03T12:27:05.777Z,2.20
2022-09-03T12:29:32.805Z,2.00
2022-09-03T12:32:10.349Z,1.97
2022-09-03T12:34:37.369Z,1.73
2022-09-03T12:37:16.996Z,1.80
2022-09-03T12:40:08.650Z,2.10
2022-09-03T12:42:35.603Z,1.90
2022-09-03T12:45:07.400Z,2.10
2022-09-03T12:47:42.707Z,2.10
2022-09-03T12:50:17.053Z,2.50
2022-09-03T12:52:43.873Z,1.95
2022-09-03T12:55:42.486Z,2.05
2022-09-03T12:58:16.496Z,1.80
2022-09-03T13:00:59.355Z,1.73
2022-09-03T13:03:49.592Z,2.00
2022-09-03T13:06:21.704Z,2.05
2022-09-03T13:08:57.033Z,2.20
2022-09-03T13:11:25.943Z,2.00
2022-09-03T13:14:01.562Z,1.92
2022-09-03T13:16:47.124Z,2.20
2022-09-03T13:19:39.022Z,2.17
2022-09-03T13:22:14.757Z,2.05
2022-09-03T13:24:48.297Z,2.00
2022-09-03T13:27:18.744Z,2.30
2022-09-03T13:30:05.485Z,2.30
2022-09-03T13:32:42.506Z,2.10
2022-09-03T13:35:36.760Z,2.00
2022-09-03T13:38:36.945Z,2.00
2022-09-03T13:41:20.178Z,2.10
2022-09-03T13:44:35.724Z,2.03
2022-09-03T13:47:16.620Z,1.95
2022-09-03T13:50:11.327Z,2.30
2022-09-03T13:52:59.308Z,2.30
2022-09-03T13:55:48.209Z,2.50
2022-09-03T13:58:45.185Z,2.33
2022-09-03T14:01:23.082Z,2.60
2022-09-03T14:04:00.824Z,2.08
2022-09-03T14:06:38.497Z,2.40
2022-09-03T14:09:14.071Z,2.40
2022-09-03T14:11:47.679Z,2.15
2022-09-03T14:14:39.260Z,2.25
2022-09-03T14:17:36.215Z,2.10
2022-09-03T14:20:25.104Z,2.00
2022-09-03T14:23:10.866Z,2.17
2022-09-03T14:25:43.749Z,2.20
2022-09-03T14:28:37.637Z,1.98
2022-09-03T14:31:22.497Z,2.22
2022-09-03T14:34:10.548Z,2.10
2022-09-03T14:36:53.749Z,2.10
2022-09-03T14:39:33.729Z,2.35
2022-09-03T14:42:17.503Z,1.98
2022-09-03T14:45:15.466Z,2.17
2022-09-03T14:47:57.940Z,2.20
2022-09-03T14:50:45.280Z,2.10
2022-09-03T14:53:50.532Z,2.25
2022-09-03T14:56:53.169Z,2.40
2022-09-03T14:59:19.805Z,2.40
2022-09-03T15:02:05.636Z,2.10
2022-09-03T15:04:38.113Z,2.10
2022-09-03T15:07:35.985Z,4.28
2022-09-03T15:10:32.999Z,2.42
2022-09-03T15:13:09.674Z,2.38
2022-09-03T15:15:49.006Z,2.27
2022-09-03T15:18:24.351Z,1.98
2022-09-03T15:21:06.491Z,2.20
2022-09-03T15:23:52.020Z,2.38
2022-09-03T15:26:33.546Z,2.22
2022-09-03T15:29:16.225Z,2.63
2022-09-03T15:31:52.020Z,2.50
2022-09-03T15:34:53.601Z,2.40
2022-09-03T15:37:27.368Z,2.60
2022-09-03T15:40:06.604Z,2.90
2022-09-03T15:42:33.545Z,2.90
2022-09-03T15:45:21.443Z,2.72
2022-09-03T15:47:56.037Z,3.20
2022-09-03T15:50:52.795Z,3.15
2022-09-03T15:53:34.311Z,3.30
2022-09-03T15:56:23.576Z,3.37
2022-09-03T15:59:07.340Z,3.17
2022-09-03T16:01:43.630Z,3.20
2022-09-03T16:04:43.309Z,3.10
2022-09-03T16:07:26.389Z,3.20
2022-09-03T16:10:24.188Z,3.60
2022-09-03T16:13:05.946Z,3.67
2022-09-03T16:15:46.820Z,2.90
2022-09-03T16:18:32.530Z,3.20
2022-09-03T16:21:14.585Z,3.28
2022-09-03T16:23:58.730Z,3.67
2022-09-03T16:26:36.240Z,3.22
2022-09-03T16:29:13.228Z,3.60
2022-09-03T16:32:07.728Z,3.83
2022-09-03T16:35:23.599Z,3.50
2022-09-03T16:38:11.577Z,3.17
2022-09-03T16:41:12.167Z,3.08
2022-09-03T16:44:06.445Z,2.88
2022-09-03T16:46:59.825Z,2.92
2022-09-03T16:49:38.361Z,2.83
2022-09-03T16:52:38.493Z,2.80
2022-09-03T16:55:06.756Z,2.70
2022-09-03T16:58:07.993Z,3.10
2022-09-03T17:00:51.265Z,2.70
2022-09-03T17:03:37.056Z,2.70
2022-09-03T17:06:14.044Z,2.70
2022-09-03T17:08:40.683Z,3.15
2022-09-03T17:11:49.330Z,2.90
2022-09-03T17:14:25.272Z,3.03
2022-09-03T17:17:09.625Z,3.03
2022-09-03T17:20:01.683Z,2.70
2022-09-03T17:22:47.073Z,3.05
2022-09-03T17:25:29.997Z,2.72
2022-09-03T17:28:07.577Z,3.08
2022-09-03T17:31:03.535Z,3.10
2022-09-03T17:33:54.227Z,3.17
2022-09-03T17:36:31.375Z,3.30
2022-09-03T17:39:00.909Z,2.95
2022-09-03T17:42:01.852Z,2.80
2022-09-03T17:44:36.793Z,3.45
2022-09-03T17:47:42.787Z,3.43
2022-09-03T17:50:21.724Z,3.70
2022-09-03T17:53:00.067Z,3.90
2022-09-03T17:55:37.512Z,3.65
2022-09-03T17:58:22.719Z,3.88
2022-09-03T18:00:59.529Z,4.00
2022-09-03T18:03:45.150Z,4.40
2022-09-03T18:06:41.391Z,4.03
2022-09-03T18:09:17.788Z,6.50
2022-09-03T18:12:03.009Z,7.03
2022-09-03T18:14:47.220Z,4.23
2022-09-03T18:17:28.280Z,3.47
2022-09-03T18:20:30.150Z,3.50
2022-09-03T18:23:21.042Z,3.70
2022-09-03T18:26:12.656Z,3.80
2022-09-03T18:29:21.429Z,4.30
2022-09-03T18:32:06.609Z,4.57
2022-09-03T18:34:54.334Z,4.90
2022-09-03T18:37:42.481Z,5.10
2022-09-03T18:40:37.171Z,4.57
2022-09-03T18:43:51.800Z,5.00
2022-09-03T18:50:06.660Z,4.63
2022-09-03T18:53:02.975Z,5.00
2022-09-03T18:55:58.881Z,4.70
2022-09-03T18:59:00.868Z,5.05
2022-09-03T19:01:54.019Z,5.50
2022-09-03T19:04:48.477Z,5.97
2022-09-03T19:08:06.151Z,5.43
2022-09-03T19:11:02.492Z,5.93
2022-09-03T19:13:54.134Z,6.20
2022-09-03T19:17:20.420Z,5.93
2022-09-03T19:20:30.036Z,5.78
2022-09-03T19:23:15.284Z,5.95
2022-09-03T19:26:01.280Z,6.25
2022-09-03T19:28:51.652Z,5.78
2022-09-03T19:31:59.529Z,6.05
2022-09-03T19:34:57.303Z,6.20
2022-09-03T19:37:51.540Z,6.10
2022-09-03T19:41:06.364Z,6.47
2022-09-03T19:44:16.888Z,5.60
2022-09-03T19:47:14.026Z,5.10
2022-09-03T19:50:32.913Z,4.85
2022-09-03T19:53:29.182Z,4.80
2022-09-03T19:56:17.033Z,4.93
2022-09-03T19:59:07.533Z,4.97
2022-09-03T20:01:55.828Z,5.57
2022-09-03T20:04:54.572Z,5.75
2022-09-03T20:07:41.045Z,6.40
2022-09-03T20:10:24.316Z,6.00
2022-09-03T20:13:03.296Z,6.90
2022-09-03T20:15:44.708Z,7.65
2022-09-03T20:18:14.373Z,7.53
2022-09-03T20:20:58.904Z,7.95
2022-09-03T20:23:50.819Z,7.82
2022-09-03T20:26:55.885Z,7.88
2022-09-03T20:29:45.331Z,7.40
2022-09-03T20:32:26.770Z,7.22
2022-09-03T20:35:27.042Z,8.00
2022-09-03T20:38:20.241Z,7.95
2022-09-03T20:40:52.720Z,7.97
2022-09-03T20:43:37.520Z,7.88
2022-09-03T20:46:22.624Z,8.40
2022-09-03T20:48:56.048Z,8.60
2022-09-03T20:51:28.105Z,8.57
2022-09-03T20:54:03.725Z,8.57
2022-09-03T20:56:53.729Z,8.70
2022-09-03T20:59:55.824Z,9.20
2022-09-03T21:02:58.238Z,8.40
2022-09-03T21:06:02.135Z,8.63
2022-09-03T21:08:47.776Z,9.25
2022-09-03T21:11:29.315Z,9.30
2022-09-03T21:14:00.212Z,9.50
2022-09-03T21:17:04.913Z,10.27
2022-09-03T21:19:54.609Z,10.02
2022-09-03T21:23:28.856Z,9.13
2022-09-03T21:26:01.421Z,9.15
2022-09-03T21:28:41.830Z,9.18
2022-09-03T21:31:17.758Z,9.55
2022-09-03T21:33:50.275Z,8.65
2022-09-03T21:36:30.250Z,8.18
2022-09-03T21:39:38.655Z,7.68
2022-09-03T21:42:30.860Z,8.15
2022-09-03T21:45:30.957Z,8.50
2022-09-03T21:48:08.798Z,8.43
2022-09-03T21:50:57.650Z,8.32
2022-09-03T21:53:35.301Z,8.75
2022-09-03T21:56:21.831Z,8.98
2022-09-03T21:59:09.344Z,8.65
2022-09-03T22:01:55.336Z,8.90
2022-09-03T22:04:22.337Z,8.25
2022-09-03T22:07:06.490Z,9.38
2022-09-03T22:09:55.965Z,9.13
2022-09-03T22:13:15.038Z,8.68
2022-09-03T22:15:51.317Z,9.50
2022-09-03T22:18:31.104Z,9.88
2022-09-03T22:21:21.081Z,9.95
2022-09-03T22:23:47.729Z,10.15
2022-09-03T22:26:26.897Z,10.27
2022-09-03T22:29:02.452Z,10.63
2022-09-03T22:31:56.556Z,9.90
2022-09-03T22:35:05.488Z,10.95
2022-09-03T22:37:42.512Z,10.57
2022-09-03T22:40:28.699Z,10.60
2022-09-03T22:42:58.415Z,10.93
2022-09-03T22:46:02.677Z,10.65
2022-09-03T22:48:50.545Z,10.00
2022-09-03T22:51:21.663Z,10.18
2022-09-03T22:54:05.124Z,9.88
2022-09-03T22:56:36.701Z,9.70
2022-09-03T22:59:20.381Z,10.30
2022-09-03T23:02:08.373Z,10.88
2022-09-03T23:05:07.720Z,10.57
2022-09-03T23:07:55.441Z,10.85
2022-09-03T23:10:30.263Z,10.77
2022-09-03T23:13:18.180Z,11.00
2022-09-03T23:15:49.638Z,11.02
2022-09-03T23:18:22.416Z,11.00
2022-09-03T23:20:59.134Z,11.80
2022-09-03T23:23:37.556Z,11.48
2022-09-03T23:26:27.033Z,11.82
2022-09-03T23:29:02.396Z,12.15
2022-09-03T23:31:29.277Z,11.80
2022-09-03T23:33:57.245Z,13.43
2022-09-03T23:37:32.884Z,13.93
2022-09-03T23:40:01.042Z,13.07
2022-09-03T23:42:58.412Z,12.93
2022-09-03T23:45:28.184Z,12.13
2022-09-03T23:48:18.995Z,12.43
2022-09-03T23:51:02.977Z,11.95
2022-09-03T23:53:32.773Z,12.55
2022-09-03T23:56:19.684Z,13.00
2022-09-03T23:59:19.112Z,12.02
